sensor_id;sensor_type;location;lat;lon;timestamp;temperature;humidity
17565;DHT22;55308;52.134;5.606;2022-07-10T00:02:12;18.10;99.90
17565;DHT22;55308;52.134;5.606;2022-07-10T00:04:39;18.10;99.90
17565;DHT22;55308;52.134;5.606;2022-07-10T00:07:06;18.10;99.90
17565;DHT22;55308;52.134;5.606;2022-07-10T00:09:32;18.10;99.90
17565;DHT22;55308;52.134;5.606;2022-07-10T00:12:01;18.20;99.90
17565;DHT22;55308;52.134;5.606;2022-07-10T00:14:28;18.10;99.90
17565;DHT22;55308;52.134;5.606;2022-07-10T00:16:54;18.00;99.90
17565;DHT22;55308;52.134;5.606;2022-07-10T00:19:21;18.10;99.90
17565;DHT22;55308;52.134;5.606;2022-07-10T00:21:48;18.10;99.90
17565;DHT22;55308;52.134;5.606;2022-07-10T00:24:14;18.10;99.90
17565;DHT22;55308;52.134;5.606;2022-07-10T00:26:41;18.10;99.90
17565;DHT22;55308;52.134;5.606;2022-07-10T00:29:09;18.00;99.90
17565;DHT22;55308;52.134;5.606;2022-07-10T00:31:36;18.00;99.90
17565;DHT22;55308;52.134;5.606;2022-07-10T00:34:03;18.00;99.90
17565;DHT22;55308;52.134;5.606;2022-07-10T00:36:30;18.00;99.90
17565;DHT22;55308;52.134;5.606;2022-07-10T00:38:56;18.10;99.90
17565;DHT22;55308;52.134;5.606;2022-07-10T00:41:23;18.10;99.90
17565;DHT22;55308;52.134;5.606;2022-07-10T00:43:54;18.00;99.90
17565;DHT22;55308;52.134;5.606;2022-07-10T00:46:23;18.10;99.90
17565;DHT22;55308;52.134;5.606;2022-07-10T00:48:50;18.10;99.90
17565;DHT22;55308;52.134;5.606;2022-07-10T00:51:20;18.20;99.90
17565;DHT22;55308;52.134;5.606;2022-07-10T00:53:48;18.00;99.90
17565;DHT22;55308;52.134;5.606;2022-07-10T00:56:16;18.00;99.90
17565;DHT22;55308;52.134;5.606;2022-07-10T00:58:44;18.00;99.90
17565;DHT22;55308;52.134;5.606;2022-07-10T01:01:12;18.00;99.90
17565;DHT22;55308;52.134;5.606;2022-07-10T01:03:40;18.00;99.90
17565;DHT22;55308;52.134;5.606;2022-07-10T01:06:07;18.00;99.90
17565;DHT22;55308;52.134;5.606;2022-07-10T01:08:34;18.00;99.90
17565;DHT22;55308;52.134;5.606;2022-07-10T01:11:01;18.00;99.90
17565;DHT22;55308;52.134;5.606;2022-07-10T01:13:28;18.00;99.90
17565;DHT22;55308;52.134;5.606;2022-07-10T01:15:55;18.00;99.90
17565;DHT22;55308;52.134;5.606;2022-07-10T01:18:22;18.00;99.90
17565;DHT22;55308;52.134;5.606;2022-07-10T01:20:52;18.00;99.90
17565;DHT22;55308;52.134;5.606;2022-07-10T01:23:19;18.10;99.90
17565;DHT22;55308;52.134;5.606;2022-07-10T01:25:47;18.10;99.90
17565;DHT22;55308;52.134;5.606;2022-07-10T01:28:14;17.90;99.90
17565;DHT22;55308;52.134;5.606;2022-07-10T01:30:41;17.80;99.90
17565;DHT22;55308;52.134;5.606;2022-07-10T01:33:08;17.80;99.90
17565;DHT22;55308;52.134;5.606;2022-07-10T01:35:35;17.70;99.90
17565;DHT22;55308;52.134;5.606;2022-07-10T01:38:04;17.80;99.90
17565;DHT22;55308;52.134;5.606;2022-07-10T01:40:32;17.90;99.90
17565;DHT22;55308;52.134;5.606;2022-07-10T01:42:59;17.80;99.90
17565;DHT22;55308;52.134;5.606;2022-07-10T01:45:26;17.90;99.90
17565;DHT22;55308;52.134;5.606;2022-07-10T01:47:52;17.90;99.90
17565;DHT22;55308;52.134;5.606;2022-07-10T01:50:19;18.00;99.90
17565;DHT22;55308;52.134;5.606;2022-07-10T01:52:46;17.90;99.90
17565;DHT22;55308;52.134;5.606;2022-07-10T01:55:14;17.80;99.90
17565;DHT22;55308;52.134;5.606;2022-07-10T01:57:41;17.80;99.90
17565;DHT22;55308;52.134;5.606;2022-07-10T02:00:08;17.80;99.90
17565;DHT22;55308;52.134;5.606;2022-07-10T02:02:35;17.80;99.90
17565;DHT22;55308;52.134;5.606;2022-07-10T02:05:02;17.90;99.90
17565;DHT22;55308;52.134;5.606;2022-07-10T02:07:28;17.90;99.90
17565;DHT22;55308;52.134;5.606;2022-07-10T02:09:55;17.80;99.90
17565;DHT22;55308;52.134;5.606;2022-07-10T02:12:23;17.70;99.90
17565;DHT22;55308;52.134;5.606;2022-07-10T02:14:49;17.50;99.90
17565;DHT22;55308;52.134;5.606;2022-07-10T02:17:16;17.40;99.90
17565;DHT22;55308;52.134;5.606;2022-07-10T02:19:43;17.50;99.90
17565;DHT22;55308;52.134;5.606;2022-07-10T02:22:10;17.50;99.90
17565;DHT22;55308;52.134;5.606;2022-07-10T02:24:36;17.50;99.90
17565;DHT22;55308;52.134;5.606;2022-07-10T02:27:04;17.60;99.90
17565;DHT22;55308;52.134;5.606;2022-07-10T02:29:32;17.50;99.90
17565;DHT22;55308;52.134;5.606;2022-07-10T02:31:58;17.40;99.90
17565;DHT22;55308;52.134;5.606;2022-07-10T02:34:25;17.50;99.90
17565;DHT22;55308;52.134;5.606;2022-07-10T02:36:52;17.50;99.90
17565;DHT22;55308;52.134;5.606;2022-07-10T02:39:19;17.50;99.90
17565;DHT22;55308;52.134;5.606;2022-07-10T02:41:47;17.60;99.90
17565;DHT22;55308;52.134;5.606;2022-07-10T02:44:14;17.70;99.90
17565;DHT22;55308;52.134;5.606;2022-07-10T02:46:43;17.70;99.90
17565;DHT22;55308;52.134;5.606;2022-07-10T02:49:09;17.40;99.90
17565;DHT22;55308;52.134;5.606;2022-07-10T02:51:36;17.60;99.90
17565;DHT22;55308;52.134;5.606;2022-07-10T02:54:03;17.50;99.90
17565;DHT22;55308;52.134;5.606;2022-07-10T02:56:29;17.30;99.90
17565;DHT22;55308;52.134;5.606;2022-07-10T02:58:56;17.40;99.90
17565;DHT22;55308;52.134;5.606;2022-07-10T03:01:23;17.60;99.90
17565;DHT22;55308;52.134;5.606;2022-07-10T03:03:51;17.60;99.90
17565;DHT22;55308;52.134;5.606;2022-07-10T03:06:17;17.60;99.90
17565;DHT22;55308;52.134;5.606;2022-07-10T03:08:44;17.70;99.90
17565;DHT22;55308;52.134;5.606;2022-07-10T03:11:11;17.70;99.90
17565;DHT22;55308;52.134;5.606;2022-07-10T03:13:37;17.70;99.90
17565;DHT22;55308;52.134;5.606;2022-07-10T03:16:05;17.60;99.90
17565;DHT22;55308;52.134;5.606;2022-07-10T03:18:31;17.60;99.90
17565;DHT22;55308;52.134;5.606;2022-07-10T03:20:59;17.50;99.90
17565;DHT22;55308;52.134;5.606;2022-07-10T03:23:26;17.40;99.90
17565;DHT22;55308;52.134;5.606;2022-07-10T03:25:53;17.40;99.90
17565;DHT22;55308;52.134;5.606;2022-07-10T03:28:20;17.60;99.90
17565;DHT22;55308;52.134;5.606;2022-07-10T03:30:46;17.60;99.90
17565;DHT22;55308;52.134;5.606;2022-07-10T03:33:13;17.60;99.90
17565;DHT22;55308;52.134;5.606;2022-07-10T03:35:40;17.60;99.90
17565;DHT22;55308;52.134;5.606;2022-07-10T03:38:08;17.60;99.90
17565;DHT22;55308;52.134;5.606;2022-07-10T03:40:34;17.50;99.90
17565;DHT22;55308;52.134;5.606;2022-07-10T03:43:01;17.50;99.90
17565;DHT22;55308;52.134;5.606;2022-07-10T03:45:28;17.60;99.90
17565;DHT22;55308;52.134;5.606;2022-07-10T03:47:54;17.60;99.90
17565;DHT22;55308;52.134;5.606;2022-07-10T03:50:21;17.60;99.90
17565;DHT22;55308;52.134;5.606;2022-07-10T03:52:48;17.50;99.90
17565;DHT22;55308;52.134;5.606;2022-07-10T03:55:16;17.40;99.90
17565;DHT22;55308;52.134;5.606;2022-07-10T03:57:43;17.60;99.90
17565;DHT22;55308;52.134;5.606;2022-07-10T04:00:22;17.60;99.90
17565;DHT22;55308;52.134;5.606;2022-07-10T04:02:54;17.50;99.90
17565;DHT22;55308;52.134;5.606;2022-07-10T04:05:22;17.30;99.90
17565;DHT22;55308;52.134;5.606;2022-07-10T04:07:48;17.30;99.90
17565;DHT22;55308;52.134;5.606;2022-07-10T04:10:16;17.40;99.90
17565;DHT22;55308;52.134;5.606;2022-07-10T04:12:44;17.40;99.90
17565;DHT22;55308;52.134;5.606;2022-07-10T04:15:10;17.50;99.90
17565;DHT22;55308;52.134;5.606;2022-07-10T04:17:37;17.50;99.90
17565;DHT22;55308;52.134;5.606;2022-07-10T04:20:05;17.40;99.90
17565;DHT22;55308;52.134;5.606;2022-07-10T04:22:32;17.40;99.90
17565;DHT22;55308;52.134;5.606;2022-07-10T04:24:59;17.40;99.90
17565;DHT22;55308;52.134;5.606;2022-07-10T04:27:27;17.50;99.90
17565;DHT22;55308;52.134;5.606;2022-07-10T04:29:54;17.50;99.90
17565;DHT22;55308;52.134;5.606;2022-07-10T04:32:21;17.70;99.90
17565;DHT22;55308;52.134;5.606;2022-07-10T04:34:48;17.60;99.90
17565;DHT22;55308;52.134;5.606;2022-07-10T04:37:15;17.80;99.90
17565;DHT22;55308;52.134;5.606;2022-07-10T04:39:42;17.80;99.90
17565;DHT22;55308;52.134;5.606;2022-07-10T04:42:09;17.90;99.90
17565;DHT22;55308;52.134;5.606;2022-07-10T04:44:37;17.80;99.90
17565;DHT22;55308;52.134;5.606;2022-07-10T04:47:04;17.80;99.90
17565;DHT22;55308;52.134;5.606;2022-07-10T04:49:32;17.90;99.90
17565;DHT22;55308;52.134;5.606;2022-07-10T04:52:00;18.00;99.90
17565;DHT22;55308;52.134;5.606;2022-07-10T04:54:26;18.00;99.90
17565;DHT22;55308;52.134;5.606;2022-07-10T04:56:53;18.10;99.90
17565;DHT22;55308;52.134;5.606;2022-07-10T04:59:20;18.10;99.90
17565;DHT22;55308;52.134;5.606;2022-07-10T05:01:48;18.20;99.90
17565;DHT22;55308;52.134;5.606;2022-07-10T05:04:15;18.20;99.90
17565;DHT22;55308;52.134;5.606;2022-07-10T05:06:41;18.40;99.90
17565;DHT22;55308;52.134;5.606;2022-07-10T05:09:08;18.30;99.90
17565;DHT22;55308;52.134;5.606;2022-07-10T05:11:35;18.30;99.90
17565;DHT22;55308;52.134;5.606;2022-07-10T05:14:02;18.30;99.90
17565;DHT22;55308;52.134;5.606;2022-07-10T05:16:28;18.40;99.90
17565;DHT22;55308;52.134;5.606;2022-07-10T05:18:56;18.50;99.90
17565;DHT22;55308;52.134;5.606;2022-07-10T05:21:23;18.40;99.90
17565;DHT22;55308;52.134;5.606;2022-07-10T05:23:50;18.40;99.90
17565;DHT22;55308;52.134;5.606;2022-07-10T05:26:17;18.40;99.90
17565;DHT22;55308;52.134;5.606;2022-07-10T05:28:44;18.30;99.90
17565;DHT22;55308;52.134;5.606;2022-07-10T05:31:11;18.40;99.90
17565;DHT22;55308;52.134;5.606;2022-07-10T05:33:38;18.50;99.90
17565;DHT22;55308;52.134;5.606;2022-07-10T05:36:07;18.30;99.90
17565;DHT22;55308;52.134;5.606;2022-07-10T05:38:34;18.30;99.90
17565;DHT22;55308;52.134;5.606;2022-07-10T05:41:01;18.10;99.90
17565;DHT22;55308;52.134;5.606;2022-07-10T05:43:28;18.10;99.90
17565;DHT22;55308;52.134;5.606;2022-07-10T05:45:55;18.10;99.90
17565;DHT22;55308;52.134;5.606;2022-07-10T05:48:22;18.20;99.90
17565;DHT22;55308;52.134;5.606;2022-07-10T05:50:48;18.20;99.90
17565;DHT22;55308;52.134;5.606;2022-07-10T05:53:16;18.40;99.90
17565;DHT22;55308;52.134;5.606;2022-07-10T05:55:45;18.40;99.90
17565;DHT22;55308;52.134;5.606;2022-07-10T05:58:12;18.30;99.90
17565;DHT22;55308;52.134;5.606;2022-07-10T06:00:39;18.10;99.90
17565;DHT22;55308;52.134;5.606;2022-07-10T06:03:08;18.00;99.90
17565;DHT22;55308;52.134;5.606;2022-07-10T06:05:34;18.20;99.90
17565;DHT22;55308;52.134;5.606;2022-07-10T06:08:01;18.30;99.90
17565;DHT22;55308;52.134;5.606;2022-07-10T06:10:29;18.20;99.90
17565;DHT22;55308;52.134;5.606;2022-07-10T06:12:56;18.20;99.90
17565;DHT22;55308;52.134;5.606;2022-07-10T06:15:23;18.20;99.90
17565;DHT22;55308;52.134;5.606;2022-07-10T06:17:50;18.00;99.90
17565;DHT22;55308;52.134;5.606;2022-07-10T06:20:17;17.90;99.90
17565;DHT22;55308;52.134;5.606;2022-07-10T06:22:43;17.80;99.90
17565;DHT22;55308;52.134;5.606;2022-07-10T06:25:10;17.80;99.90
17565;DHT22;55308;52.134;5.606;2022-07-10T06:27:39;17.80;99.90
17565;DHT22;55308;52.134;5.606;2022-07-10T06:30:06;17.90;99.90
17565;DHT22;55308;52.134;5.606;2022-07-10T06:32:33;18.00;99.90
17565;DHT22;55308;52.134;5.606;2022-07-10T06:35:00;18.00;99.90
17565;DHT22;55308;52.134;5.606;2022-07-10T06:37:27;18.10;99.90
17565;DHT22;55308;52.134;5.606;2022-07-10T06:39:54;18.20;99.90
17565;DHT22;55308;52.134;5.606;2022-07-10T06:42:20;18.20;99.90
17565;DHT22;55308;52.134;5.606;2022-07-10T06:44:49;18.10;99.90
17565;DHT22;55308;52.134;5.606;2022-07-10T06:47:17;18.10;99.90
17565;DHT22;55308;52.134;5.606;2022-07-10T06:50:02;18.00;99.90
17565;DHT22;55308;52.134;5.606;2022-07-10T06:52:31;18.10;99.90
17565;DHT22;55308;52.134;5.606;2022-07-10T06:54:58;18.00;99.90
17565;DHT22;55308;52.134;5.606;2022-07-10T06:57:25;18.10;99.90
17565;DHT22;55308;52.134;5.606;2022-07-10T06:59:53;18.10;99.90
17565;DHT22;55308;52.134;5.606;2022-07-10T07:02:20;18.00;99.90
17565;DHT22;55308;52.134;5.606;2022-07-10T07:04:47;18.00;99.90
17565;DHT22;55308;52.134;5.606;2022-07-10T07:07:14;18.10;99.90
17565;DHT22;55308;52.134;5.606;2022-07-10T07:09:41;18.10;99.90
17565;DHT22;55308;52.134;5.606;2022-07-10T07:12:09;18.30;99.90
17565;DHT22;55308;52.134;5.606;2022-07-10T07:14:36;18.30;99.90
17565;DHT22;55308;52.134;5.606;2022-07-10T07:17:05;18.20;99.90
17565;DHT22;55308;52.134;5.606;2022-07-10T07:19:34;18.20;99.90
17565;DHT22;55308;52.134;5.606;2022-07-10T07:22:15;18.10;99.90
17565;DHT22;55308;52.134;5.606;2022-07-10T07:24:59;18.00;99.90
17565;DHT22;55308;52.134;5.606;2022-07-10T07:27:26;18.30;99.90
17565;DHT22;55308;52.134;5.606;2022-07-10T07:29:52;18.50;99.90
17565;DHT22;55308;52.134;5.606;2022-07-10T07:32:21;18.60;99.90
17565;DHT22;55308;52.134;5.606;2022-07-10T07:34:47;18.70;99.90
17565;DHT22;55308;52.134;5.606;2022-07-10T07:37:14;18.90;99.90
17565;DHT22;55308;52.134;5.606;2022-07-10T07:39:41;18.90;99.90
17565;DHT22;55308;52.134;5.606;2022-07-10T07:42:08;18.90;99.90
17565;DHT22;55308;52.134;5.606;2022-07-10T07:44:34;19.00;99.90
17565;DHT22;55308;52.134;5.606;2022-07-10T07:47:01;19.00;99.90
17565;DHT22;55308;52.134;5.606;2022-07-10T07:49:29;19.20;99.90
17565;DHT22;55308;52.134;5.606;2022-07-10T07:51:56;19.30;99.90
17565;DHT22;55308;52.134;5.606;2022-07-10T07:54:22;19.20;99.90
17565;DHT22;55308;52.134;5.606;2022-07-10T07:56:49;19.20;99.90
17565;DHT22;55308;52.134;5.606;2022-07-10T07:59:16;19.00;99.90
17565;DHT22;55308;52.134;5.606;2022-07-10T08:01:43;19.00;99.90
17565;DHT22;55308;52.134;5.606;2022-07-10T08:04:10;19.10;99.90
17565;DHT22;55308;52.134;5.606;2022-07-10T08:06:38;19.10;99.90
17565;DHT22;55308;52.134;5.606;2022-07-10T08:09:05;18.90;99.90
17565;DHT22;55308;52.134;5.606;2022-07-10T08:11:32;18.80;99.90
17565;DHT22;55308;52.134;5.606;2022-07-10T08:13:58;18.70;99.90
17565;DHT22;55308;52.134;5.606;2022-07-10T08:16:25;18.70;99.90
17565;DHT22;55308;52.134;5.606;2022-07-10T08:18:52;19.00;99.90
17565;DHT22;55308;52.134;5.606;2022-07-10T08:21:19;19.00;99.90
17565;DHT22;55308;52.134;5.606;2022-07-10T08:23:49;19.30;99.90
17565;DHT22;55308;52.134;5.606;2022-07-10T08:26:15;19.60;99.90
17565;DHT22;55308;52.134;5.606;2022-07-10T08:28:42;19.70;99.90
17565;DHT22;55308;52.134;5.606;2022-07-10T08:31:09;19.70;99.90
17565;DHT22;55308;52.134;5.606;2022-07-10T08:33:35;19.70;99.90
17565;DHT22;55308;52.134;5.606;2022-07-10T08:36:03;19.50;99.90
17565;DHT22;55308;52.134;5.606;2022-07-10T08:38:30;19.50;99.90
17565;DHT22;55308;52.134;5.606;2022-07-10T08:41:00;19.60;99.90
17565;DHT22;55308;52.134;5.606;2022-07-10T08:43:29;19.70;99.90
17565;DHT22;55308;52.134;5.606;2022-07-10T08:45:56;19.90;99.90
17565;DHT22;55308;52.134;5.606;2022-07-10T08:48:24;20.20;99.90
17565;DHT22;55308;52.134;5.606;2022-07-10T08:50:52;20.80;99.90
17565;DHT22;55308;52.134;5.606;2022-07-10T08:53:24;21.00;99.90
17565;DHT22;55308;52.134;5.606;2022-07-10T08:55:55;21.50;99.90
17565;DHT22;55308;52.134;5.606;2022-07-10T08:58:23;21.70;99.90
17565;DHT22;55308;52.134;5.606;2022-07-10T09:00:50;21.60;99.90
17565;DHT22;55308;52.134;5.606;2022-07-10T09:03:17;21.50;99.90
17565;DHT22;55308;52.134;5.606;2022-07-10T09:05:44;21.40;99.90
17565;DHT22;55308;52.134;5.606;2022-07-10T09:08:24;21.20;99.90
17565;DHT22;55308;52.134;5.606;2022-07-10T09:10:55;21.60;99.90
17565;DHT22;55308;52.134;5.606;2022-07-10T09:13:48;22.40;99.90
17565;DHT22;55308;52.134;5.606;2022-07-10T09:16:21;22.90;99.90
17565;DHT22;55308;52.134;5.606;2022-07-10T09:18:48;22.90;99.90
17565;DHT22;55308;52.134;5.606;2022-07-10T09:21:15;22.30;99.90
17565;DHT22;55308;52.134;5.606;2022-07-10T09:23:42;21.80;99.90
17565;DHT22;55308;52.134;5.606;2022-07-10T09:26:08;22.00;99.90
17565;DHT22;55308;52.134;5.606;2022-07-10T09:28:35;21.90;99.90
17565;DHT22;55308;52.134;5.606;2022-07-10T09:31:03;21.70;99.90
17565;DHT22;55308;52.134;5.606;2022-07-10T09:33:31;21.70;99.90
17565;DHT22;55308;52.134;5.606;2022-07-10T09:36:07;21.90;99.90
17565;DHT22;55308;52.134;5.606;2022-07-10T09:38:54;21.80;99.90
17565;DHT22;55308;52.134;5.606;2022-07-10T09:41:25;21.70;99.90
17565;DHT22;55308;52.134;5.606;2022-07-10T09:43:53;21.70;99.90
17565;DHT22;55308;52.134;5.606;2022-07-10T09:46:25;21.60;99.90
17565;DHT22;55308;52.134;5.606;2022-07-10T09:49:03;22.10;99.90
17565;DHT22;55308;52.134;5.606;2022-07-10T09:51:31;22.90;99.90
17565;DHT22;55308;52.134;5.606;2022-07-10T09:54:00;22.90;99.90
17565;DHT22;55308;52.134;5.606;2022-07-10T09:56:33;23.20;99.90
17565;DHT22;55308;52.134;5.606;2022-07-10T09:59:01;23.40;99.90
17565;DHT22;55308;52.134;5.606;2022-07-10T10:01:35;23.60;99.90
17565;DHT22;55308;52.134;5.606;2022-07-10T10:04:03;23.50;99.90
17565;DHT22;55308;52.134;5.606;2022-07-10T10:06:31;23.90;99.90
17565;DHT22;55308;52.134;5.606;2022-07-10T10:09:04;24.00;99.90
17565;DHT22;55308;52.134;5.606;2022-07-10T10:11:33;24.20;99.90
17565;DHT22;55308;52.134;5.606;2022-07-10T10:14:01;24.10;99.90
17565;DHT22;55308;52.134;5.606;2022-07-10T10:16:29;25.10;99.90
17565;DHT22;55308;52.134;5.606;2022-07-10T10:18:57;25.40;99.90
17565;DHT22;55308;52.134;5.606;2022-07-10T10:21:43;26.00;99.90
17565;DHT22;55308;52.134;5.606;2022-07-10T10:24:11;25.90;99.90
17565;DHT22;55308;52.134;5.606;2022-07-10T10:26:38;26.20;99.90
17565;DHT22;55308;52.134;5.606;2022-07-10T10:29:06;25.70;99.90
17565;DHT22;55308;52.134;5.606;2022-07-10T10:31:33;24.90;99.90
17565;DHT22;55308;52.134;5.606;2022-07-10T10:34:02;24.10;99.90
17565;DHT22;55308;52.134;5.606;2022-07-10T10:36:45;23.70;99.90
17565;DHT22;55308;52.134;5.606;2022-07-10T10:39:13;23.40;99.90
17565;DHT22;55308;52.134;5.606;2022-07-10T10:41:45;23.10;99.90
17565;DHT22;55308;52.134;5.606;2022-07-10T10:44:20;22.80;99.90
17565;DHT22;55308;52.134;5.606;2022-07-10T10:46:58;23.30;99.90
17565;DHT22;55308;52.134;5.606;2022-07-10T10:49:51;23.90;99.90
17565;DHT22;55308;52.134;5.606;2022-07-10T10:52:19;23.80;99.90
17565;DHT22;55308;52.134;5.606;2022-07-10T10:55:04;23.70;99.90
17565;DHT22;55308;52.134;5.606;2022-07-10T10:57:43;23.80;99.90
17565;DHT22;55308;52.134;5.606;2022-07-10T11:00:34;23.90;99.90
17565;DHT22;55308;52.134;5.606;2022-07-10T11:03:22;23.40;99.90
17565;DHT22;55308;52.134;5.606;2022-07-10T11:05:51;23.50;99.90
17565;DHT22;55308;52.134;5.606;2022-07-10T11:08:41;23.30;99.90
17565;DHT22;55308;52.134;5.606;2022-07-10T11:11:37;23.50;99.90
17565;DHT22;55308;52.134;5.606;2022-07-10T11:14:06;23.70;99.90
17565;DHT22;55308;52.134;5.606;2022-07-10T11:16:34;23.70;99.90
17565;DHT22;55308;52.134;5.606;2022-07-10T11:19:01;23.80;99.90
17565;DHT22;55308;52.134;5.606;2022-07-10T11:21:46;24.40;99.90
17565;DHT22;55308;52.134;5.606;2022-07-10T11:24:29;24.60;99.90
17565;DHT22;55308;52.134;5.606;2022-07-10T11:27:09;24.20;99.90
17565;DHT22;55308;52.134;5.606;2022-07-10T11:29:39;24.40;99.90
17565;DHT22;55308;52.134;5.606;2022-07-10T11:32:06;24.30;99.90
17565;DHT22;55308;52.134;5.606;2022-07-10T11:34:34;24.10;99.90
17565;DHT22;55308;52.134;5.606;2022-07-10T11:37:03;24.10;99.90
17565;DHT22;55308;52.134;5.606;2022-07-10T11:39:30;24.00;99.90
17565;DHT22;55308;52.134;5.606;2022-07-10T11:41:57;23.90;99.90
17565;DHT22;55308;52.134;5.606;2022-07-10T11:44:24;24.10;99.90
17565;DHT22;55308;52.134;5.606;2022-07-10T11:46:53;24.00;99.90
17565;DHT22;55308;52.134;5.606;2022-07-10T11:49:21;24.00;99.90
17565;DHT22;55308;52.134;5.606;2022-07-10T11:51:48;23.90;99.90
17565;DHT22;55308;52.134;5.606;2022-07-10T11:54:17;23.70;99.90
17565;DHT22;55308;52.134;5.606;2022-07-10T11:56:47;23.80;99.90
17565;DHT22;55308;52.134;5.606;2022-07-10T11:59:15;24.20;99.90
17565;DHT22;55308;52.134;5.606;2022-07-10T12:01:43;24.10;99.90
17565;DHT22;55308;52.134;5.606;2022-07-10T12:04:11;23.40;99.90
17565;DHT22;55308;52.134;5.606;2022-07-10T12:06:40;23.50;99.90
17565;DHT22;55308;52.134;5.606;2022-07-10T12:09:08;24.00;99.90
17565;DHT22;55308;52.134;5.606;2022-07-10T12:11:37;24.30;99.90
17565;DHT22;55308;52.134;5.606;2022-07-10T12:14:12;24.30;99.90
17565;DHT22;55308;52.134;5.606;2022-07-10T12:16:40;24.40;99.90
17565;DHT22;55308;52.134;5.606;2022-07-10T12:19:10;24.40;99.90
17565;DHT22;55308;52.134;5.606;2022-07-10T12:21:37;24.50;99.90
17565;DHT22;55308;52.134;5.606;2022-07-10T12:24:05;24.90;99.90
17565;DHT22;55308;52.134;5.606;2022-07-10T12:26:33;24.40;99.90
17565;DHT22;55308;52.134;5.606;2022-07-10T12:29:02;24.50;99.90
17565;DHT22;55308;52.134;5.606;2022-07-10T12:31:30;24.10;99.90
17565;DHT22;55308;52.134;5.606;2022-07-10T12:33:59;24.10;99.90
17565;DHT22;55308;52.134;5.606;2022-07-10T12:36:41;24.10;99.90
17565;DHT22;55308;52.134;5.606;2022-07-10T12:39:09;24.10;99.90
17565;DHT22;55308;52.134;5.606;2022-07-10T12:41:53;24.40;99.90
17565;DHT22;55308;52.134;5.606;2022-07-10T12:44:32;24.40;99.90
17565;DHT22;55308;52.134;5.606;2022-07-10T12:47:02;24.40;99.90
17565;DHT22;55308;52.134;5.606;2022-07-10T12:49:47;24.70;99.90
17565;DHT22;55308;52.134;5.606;2022-07-10T12:52:19;24.70;99.90
17565;DHT22;55308;52.134;5.606;2022-07-10T12:54:46;24.50;99.90
17565;DHT22;55308;52.134;5.606;2022-07-10T12:57:13;24.50;99.90
17565;DHT22;55308;52.134;5.606;2022-07-10T12:59:41;24.80;99.90
17565;DHT22;55308;52.134;5.606;2022-07-10T13:02:19;24.90;99.90
17565;DHT22;55308;52.134;5.606;2022-07-10T13:04:52;25.10;99.90
17565;DHT22;55308;52.134;5.606;2022-07-10T13:07:19;24.90;99.90
17565;DHT22;55308;52.134;5.606;2022-07-10T13:09:48;25.10;99.90
17565;DHT22;55308;52.134;5.606;2022-07-10T13:12:16;25.60;99.90
17565;DHT22;55308;52.134;5.606;2022-07-10T13:14:44;25.70;99.90
17565;DHT22;55308;52.134;5.606;2022-07-10T13:17:11;25.80;99.90
17565;DHT22;55308;52.134;5.606;2022-07-10T13:19:38;25.60;99.90
17565;DHT22;55308;52.134;5.606;2022-07-10T13:22:05;25.70;99.90
17565;DHT22;55308;52.134;5.606;2022-07-10T13:24:32;25.50;99.90
17565;DHT22;55308;52.134;5.606;2022-07-10T13:26:58;25.50;99.90
17565;DHT22;55308;52.134;5.606;2022-07-10T13:29:25;25.30;99.90
17565;DHT22;55308;52.134;5.606;2022-07-10T13:31:53;25.30;99.90
17565;DHT22;55308;52.134;5.606;2022-07-10T13:34:20;25.40;99.90
17565;DHT22;55308;52.134;5.606;2022-07-10T13:36:47;25.70;99.90
17565;DHT22;55308;52.134;5.606;2022-07-10T13:39:13;25.20;99.90
17565;DHT22;55308;52.134;5.606;2022-07-10T13:41:40;25.00;99.90
17565;DHT22;55308;52.134;5.606;2022-07-10T13:44:07;24.50;99.90
17565;DHT22;55308;52.134;5.606;2022-07-10T13:46:34;24.90;99.90
17565;DHT22;55308;52.134;5.606;2022-07-10T13:49:03;25.20;99.90
17565;DHT22;55308;52.134;5.606;2022-07-10T13:51:30;25.30;99.90
17565;DHT22;55308;52.134;5.606;2022-07-10T13:53:57;25.20;99.90
17565;DHT22;55308;52.134;5.606;2022-07-10T13:56:24;25.10;99.90
17565;DHT22;55308;52.134;5.606;2022-07-10T13:58:51;24.90;99.90
17565;DHT22;55308;52.134;5.606;2022-07-10T14:01:18;24.80;99.90
17565;DHT22;55308;52.134;5.606;2022-07-10T14:03:47;25.00;99.90
17565;DHT22;55308;52.134;5.606;2022-07-10T14:06:15;24.30;99.90
17565;DHT22;55308;52.134;5.606;2022-07-10T14:08:42;24.70;99.90
17565;DHT22;55308;52.134;5.606;2022-07-10T14:11:08;25.10;99.90
17565;DHT22;55308;52.134;5.606;2022-07-10T14:13:35;25.50;99.90
17565;DHT22;55308;52.134;5.606;2022-07-10T14:16:03;25.20;99.90
17565;DHT22;55308;52.134;5.606;2022-07-10T14:18:29;24.80;99.90
17565;DHT22;55308;52.134;5.606;2022-07-10T14:21:04;24.90;99.90
17565;DHT22;55308;52.134;5.606;2022-07-10T14:23:36;25.00;99.90
17565;DHT22;55308;52.134;5.606;2022-07-10T14:26:04;25.10;99.90
17565;DHT22;55308;52.134;5.606;2022-07-10T14:28:31;25.40;99.90
17565;DHT22;55308;52.134;5.606;2022-07-10T14:31:00;25.70;99.90
17565;DHT22;55308;52.134;5.606;2022-07-10T14:33:29;25.60;99.90
17565;DHT22;55308;52.134;5.606;2022-07-10T14:35:55;25.20;99.90
17565;DHT22;55308;52.134;5.606;2022-07-10T14:38:22;25.10;99.90
17565;DHT22;55308;52.134;5.606;2022-07-10T14:40:51;25.20;99.90
17565;DHT22;55308;52.134;5.606;2022-07-10T14:43:18;25.30;99.90
17565;DHT22;55308;52.134;5.606;2022-07-10T14:45:45;25.30;99.90
17565;DHT22;55308;52.134;5.606;2022-07-10T14:48:13;25.20;99.90
17565;DHT22;55308;52.134;5.606;2022-07-10T14:50:39;25.30;99.90
17565;DHT22;55308;52.134;5.606;2022-07-10T14:53:06;25.30;99.90
17565;DHT22;55308;52.134;5.606;2022-07-10T14:55:34;25.20;99.90
17565;DHT22;55308;52.134;5.606;2022-07-10T14:58:03;25.40;99.90
17565;DHT22;55308;52.134;5.606;2022-07-10T15:00:29;25.60;99.90
17565;DHT22;55308;52.134;5.606;2022-07-10T15:02:56;25.30;99.90
17565;DHT22;55308;52.134;5.606;2022-07-10T15:05:23;24.90;99.90
17565;DHT22;55308;52.134;5.606;2022-07-10T15:07:49;24.80;99.90
17565;DHT22;55308;52.134;5.606;2022-07-10T15:10:16;24.70;99.90
17565;DHT22;55308;52.134;5.606;2022-07-10T15:12:44;24.50;99.90
17565;DHT22;55308;52.134;5.606;2022-07-10T15:15:12;24.10;99.90
17565;DHT22;55308;52.134;5.606;2022-07-10T15:17:39;24.50;99.90
17565;DHT22;55308;52.134;5.606;2022-07-10T15:20:07;24.50;99.90
17565;DHT22;55308;52.134;5.606;2022-07-10T15:22:34;25.00;99.90
17565;DHT22;55308;52.134;5.606;2022-07-10T15:25:00;25.10;99.90
17565;DHT22;55308;52.134;5.606;2022-07-10T15:27:27;25.10;99.90
17565;DHT22;55308;52.134;5.606;2022-07-10T15:29:54;24.70;99.90
17565;DHT22;55308;52.134;5.606;2022-07-10T15:32:22;25.10;99.90
17565;DHT22;55308;52.134;5.606;2022-07-10T15:34:49;25.10;99.90
17565;DHT22;55308;52.134;5.606;2022-07-10T15:37:16;25.00;99.90
17565;DHT22;55308;52.134;5.606;2022-07-10T15:39:42;25.30;99.90